Jeffris, Wisconsin
Current Conditions -  °F | °C
As of 9:15 AM on Monday 24 Nov 2014 (Local Time) from KRRL Reporting Station
Light Rain Light Rain  
Wind Chill: -2°   Ceiling: 900
Heat Index:   Visibility: 7mi
Dew Point:   Wind: 7mph
Humidity: 100%   Direction: 330°NNW
Pressure: 29.1"   Gusts: NA
Location:  45.3595°N, 89.45°W
Report Text: KRRL 241515Z AUTO 33006KT 7SM -RA OVC009 02/02 A2910 RMK AO2 T00150015
Loading
Personal Weather Stations






























Interactive Weather Map New forecast layout! Learn more

10-Day Weather Forecast

Advertisements
Track Severe Weather on mobile